Dades meteomassalio
Diari Summary for Maig 14, 2017 Units:  Metric    English   Both
« Previous Day
Next Day »
Diari Semanal Mensual Anual Personalitzat
  Maxima: Minima: Mijana:
Temperatura: 27.1 °C 11.6 °C 19.7 °C
Rosada: 12.9 °C 6.5 °C 10.2 °C
Humitat: 92 % 28 % 60 %
Velocitat del vent: 22.2 km/h 0.0 km/h 5 km/h
Racha vent: 22.2 km/h - -
Vent:- - SSW
Pressio: 1024.9 hPa 1019.2 hPa -
Pluja: 0.0 mm    
Historical Graphs
 
 
Tabular Data for Maig 14, 2017
Time Temperature Dew Point Pressure Wind Wind Speed Wind Gust Humidity Rainfall Rate (Hourly) solar Conditions
00:00 15.6 °C 12.7 °C 1019.2 hPa Calm     83 % 0.0 mm 0.0 W/m2 CLR
00:05 15.4 °C 12.9 °C 1019.2 hPa Calm     85 % 0.0 mm 0.0 W/m2 RA
00:10 15.1 °C 12.7 °C 1019.2 hPa Calm     86 % 0.0 mm 0.0 W/m2 CLR
00:15 14.8 °C 12.6 °C 1019.2 hPa SSW 5.6 km/h   87 % 0.0 mm 0.0 W/m2 CLR
00:20 14.6 °C 12.4 °C 1019.2 hPa Calm     87 % 0.0 mm 0.0 W/m2 CLR
00:25 14.5 °C 12.6 °C 1019.2 hPa Calm     88 % 0.0 mm 0.0 W/m2 CLR
00:30 14.4 °C 12.4 °C 1019.2 hPa Calm     88 % 0.0 mm 0.0 W/m2 CLR
00:35 14.3 °C 12.6 °C 1019.2 hPa Calm     89 % 0.0 mm 0.0 W/m2 CLR
00:40 14.3 °C 12.5 °C 1019.2 hPa Calm     89 % 0.0 mm 0.0 W/m2 CLR
00:45 14.2 °C 12.4 °C 1019.2 hPa Calm     89 % 0.0 mm 0.0 W/m2 CLR
00:50 14.1 °C 12.3 °C 1019.2 hPa Calm     89 % 0.0 mm 0.0 W/m2 CLR
00:55 14.1 °C 12.4 °C 1019.5 hPa Calm     90 % 0.0 mm 0.0 W/m2 CLR
01:00 14.1 °C 12.4 °C 1019.5 hPa Calm     90 % 0.0 mm 0.0 W/m2 CLR
01:05 14.1 °C 12.4 °C 1019.5 hPa Calm     90 % 0.0 mm 0.0 W/m2 CLR
01:10 14.1 °C 12.4 °C 1019.5 hPa Calm     90 % 0.0 mm 0.0 W/m2 CLR
01:15 14.0 °C 12.4 °C 1019.5 hPa Calm     90 % 0.0 mm 0.0 W/m2 CLR
01:20 13.9 °C 12.3 °C 1019.5 hPa Calm     90 % 0.0 mm 0.0 W/m2 CLR
01:25 13.8 °C 12.2 °C 1019.5 hPa Calm     90 % 0.0 mm 0.0 W/m2 CLR
01:30 13.8 °C 12.2 °C 1019.5 hPa Calm     90 % 0.0 mm 0.0 W/m2 CLR
01:35 13.8 °C 12.2 °C 1019.5 hPa Calm     90 % 0.0 mm 0.0 W/m2 CLR
01:40 13.7 °C 12.1 °C 1019.5 hPa Calm     90 % 0.0 mm 0.0 W/m2 CLR
01:45 13.7 °C 12.1 °C 1019.9 hPa Calm     90 % 0.0 mm 0.0 W/m2 CLR
01:50 13.7 °C 12.1 °C 1019.9 hPa Calm     90 % 0.0 mm 0.0 W/m2 CLR
01:55 13.7 °C 12.1 °C 1019.9 hPa Calm     90 % 0.0 mm 0.0 W/m2 CLR
02:00 13.7 °C 12.1 °C 1019.9 hPa Calm     90 % 0.0 mm 0.0 W/m2 CLR
02:05 13.7 °C 12.1 °C 1019.9 hPa Calm     90 % 0.0 mm 0.0 W/m2 CLR
02:10 13.8 °C 12.2 °C 1019.9 hPa Calm     90 % 0.0 mm 0.0 W/m2 CLR
02:15 13.8 °C 12.2 °C 1019.9 hPa Calm     90 % 0.0 mm 0.0 W/m2 CLR
02:20 13.7 °C 12.1 °C 1019.9 hPa Calm     90 % 0.0 mm 0.0 W/m2 CLR
02:25 13.7 °C 12.1 °C 1020.2 hPa Calm     90 % 0.0 mm 0.0 W/m2 CLR
02:30 13.6 °C 12.0 °C 1020.2 hPa Calm     90 % 0.0 mm 0.0 W/m2 CLR
02:35 13.5 °C 11.9 °C 1020.2 hPa Calm     90 % 0.0 mm 0.0 W/m2 CLR
02:40 13.4 °C 11.8 °C 1020.2 hPa Calm     90 % 0.0 mm 0.0 W/m2 CLR
02:45 13.4 °C 11.8 °C 1020.2 hPa Calm     90 % 0.0 mm 0.0 W/m2 CLR
02:50 13.3 °C 11.7 °C 1020.2 hPa Calm     90 % 0.0 mm 0.0 W/m2 CLR
02:55 13.3 °C 11.7 °C 1020.5 hPa Calm     90 % 0.0 mm 0.0 W/m2 CLR
03:00 13.2 °C 11.6 °C 1020.5 hPa Calm     90 % 0.0 mm 0.0 W/m2 CLR
03:05 13.1 °C 11.5 °C 1020.2 hPa Calm     90 % 0.0 mm 0.0 W/m2 CLR
03:10 13.1 °C 11.5 °C 1020.2 hPa Calm     90 % 0.0 mm 0.0 W/m2 CLR
03:15 13.1 °C 11.5 °C 1020.2 hPa SW 1.6 km/h 1.6 km/h 90 % 0.0 mm 0.0 W/m2 CLR
03:20 13.1 °C 11.5 °C 1020.2 hPa Calm     90 % 0.0 mm 0.0 W/m2 CLR
03:25 13.2 °C 11.6 °C 1020.2 hPa Calm     90 % 0.0 mm 0.0 W/m2 CLR
03:30 13.2 °C 11.6 °C 1020.2 hPa Calm     90 % 0.0 mm 0.0 W/m2 CLR
03:35 13.1 °C 11.5 °C 1020.2 hPa Calm     90 % 0.0 mm 0.0 W/m2 CLR
03:40 13.1 °C 11.4 °C 1020.2 hPa Calm     90 % 0.0 mm 0.0 W/m2 CLR
03:45 13.0 °C 11.4 °C 1020.2 hPa Calm     90 % 0.0 mm 0.0 W/m2 CLR
03:50 12.9 °C 11.3 °C 1020.2 hPa Calm     90 % 0.0 mm 0.0 W/m2 CLR
03:55 12.9 °C 11.4 °C 1020.2 hPa Calm     91 % 0.0 mm 0.0 W/m2 CLR
04:00 12.8 °C 11.2 °C 1020.2 hPa Calm     90 % 0.0 mm 0.0 W/m2 CLR
04:05 12.9 °C 11.4 °C 1020.2 hPa Calm     91 % 0.0 mm 0.0 W/m2 CLR
04:10 12.9 °C 11.4 °C 1020.2 hPa Calm     91 % 0.0 mm 0.0 W/m2 CLR
04:15 12.8 °C 11.2 °C 1020.2 hPa Calm     90 % 0.0 mm 0.0 W/m2 CLR
04:20 12.7 °C 11.2 °C 1020.2 hPa Calm     91 % 0.0 mm 0.0 W/m2 CLR
04:25 12.6 °C 11.2 °C 1020.2 hPa Calm     91 % 0.0 mm 0.0 W/m2 CLR
04:30 12.7 °C 11.2 °C 1020.2 hPa Calm     91 % 0.0 mm 0.0 W/m2 CLR
04:35 12.7 °C 11.2 °C 1020.2 hPa Calm     91 % 0.0 mm 0.0 W/m2 CLR
04:40 12.6 °C 11.1 °C 1020.5 hPa Calm     91 % 0.0 mm 0.0 W/m2 CLR
04:45 12.5 °C 11.1 °C 1020.5 hPa Calm     91 % 0.0 mm 0.0 W/m2 CLR
04:50 12.4 °C 11.0 °C 1020.5 hPa Calm     91 % 0.0 mm 0.0 W/m2 CLR
04:55 12.5 °C 11.1 °C 1020.5 hPa Calm     91 % 0.0 mm 0.0 W/m2 CLR
05:00 12.6 °C 11.1 °C 1020.5 hPa Calm     91 % 0.0 mm 0.0 W/m2 CLR
05:05 12.6 °C 11.1 °C 1020.5 hPa Calm     91 % 0.0 mm 0.0 W/m2 CLR
05:06 12.6 °C 11.1 °C 1020.5 hPa Calm     91 % 0.0 mm 0.0 W/m2 CLR
05:11 12.5 °C 11.1 °C 1020.5 hPa Calm     91 % 0.0 mm 0.0 W/m2 CLR
05:16 12.4 °C 11.0 °C 1020.5 hPa Calm     91 % 0.0 mm 0.0 W/m2 CLR
05:21 12.4 °C 10.9 °C 1020.5 hPa Calm     91 % 0.0 mm 0.0 W/m2 CLR
05:26 12.4 °C 11.0 °C 1020.5 hPa Calm     91 % 0.0 mm 0.0 W/m2 CLR
05:31 12.4 °C 11.0 °C 1020.5 hPa Calm     91 % 0.0 mm 0.0 W/m2 CLR
05:36 12.4 °C 11.0 °C 1020.5 hPa Calm     91 % 0.0 mm 0.0 W/m2 CLR
05:41 12.4 °C 11.0 °C 1020.5 hPa Calm     91 % 0.0 mm 0.0 W/m2 CLR
05:46 12.4 °C 10.9 °C 1020.5 hPa Calm     91 % 0.0 mm 0.0 W/m2 CLR
05:51 12.3 °C 10.9 °C 1020.9 hPa Calm     91 % 0.0 mm 0.0 W/m2 CLR
05:56 12.3 °C 10.9 °C 1020.9 hPa Calm     91 % 0.0 mm 0.0 W/m2 CLR
06:01 12.3 °C 10.8 °C 1020.9 hPa Calm     91 % 0.0 mm 0.0 W/m2 CLR
06:06 12.3 °C 10.8 °C 1020.9 hPa Calm     91 % 0.0 mm 0.0 W/m2 CLR
06:11 12.3 °C 10.9 °C 1020.9 hPa Calm     91 % 0.0 mm 0.0 W/m2 CLR
06:12 12.3 °C 10.9 °C 1020.5 hPa Calm     91 % 0.0 mm 0.0 W/m2 CLR
06:17 12.3 °C 10.9 °C 1020.9 hPa Calm     91 % 0.0 mm 0.0 W/m2 CLR
06:22 12.2 °C 10.8 °C 1020.9 hPa Calm     91 % 0.0 mm 0.0 W/m2 CLR
06:27 12.1 °C 10.7 °C 1020.9 hPa Calm     91 % 0.0 mm 0.0 W/m2 CLR
06:32 12.0 °C 10.6 °C 1021.2 hPa Calm     91 % 0.0 mm 0.0 W/m2 OVC
06:37 12.0 °C 10.6 °C 1021.2 hPa Calm     91 % 0.0 mm 0.0 W/m2 OVC
06:42 11.9 °C 10.5 °C 1021.6 hPa Calm     91 % 0.0 mm 0.0 W/m2 OVC
06:47 11.8 °C 10.4 °C 1021.6 hPa Calm     91 % 0.0 mm 0.0 W/m2 OVC
06:52 11.8 °C 10.3 °C 1021.6 hPa Calm     91 % 0.0 mm 0.0 W/m2 OVC
06:57 11.7 °C 10.3 °C 1021.6 hPa Calm     91 % 0.0 mm 5.0 W/m2 OVC
07:02 11.7 °C 10.2 °C 1021.6 hPa Calm     91 % 0.0 mm 7.0 W/m2 BKN
07:07 11.6 °C 10.3 °C 1021.9 hPa Calm     92 % 0.0 mm 11.0 W/m2 BKN
07:12 11.6 °C 10.3 °C 1021.9 hPa WSW 1.9 km/h   92 % 0.0 mm 19.0 W/m2 BKN
07:17 11.7 °C 10.4 °C 1021.9 hPa Calm     92 % 0.0 mm 26.0 W/m2 BKN
07:22 11.7 °C 10.4 °C 1021.9 hPa Calm     92 % 0.0 mm 33.0 W/m2 BKN
07:27 11.8 °C 10.6 °C 1022.2 hPa Calm     92 % 0.0 mm 46.0 W/m2 SCT
07:32 12.0 °C 10.7 °C 1022.2 hPa Calm     92 % 0.0 mm 72.0 W/m2 FEW
07:37 12.2 °C 10.7 °C 1022.2 hPa Calm     91 % 0.0 mm 47.0 W/m2 SCT
07:42 12.2 °C 10.8 °C 1022.6 hPa Calm     91 % 0.0 mm 91.0 W/m2 CLR
07:47 12.2 °C 10.8 °C 1022.6 hPa Calm     91 % 0.0 mm 62.0 W/m2 FEW
07:52 12.3 °C 10.9 °C 1022.6 hPa Calm     91 % 0.0 mm 114.0 W/m2 CLR
07:57 12.4 °C 11.0 °C 1022.6 hPa Calm     91 % 0.0 mm 130.0 W/m2 CLR
08:02 12.7 °C 11.3 °C 1022.6 hPa Calm     91 % 0.0 mm 144.0 W/m2 CLR
08:07 12.9 °C 11.5 °C 1022.6 hPa Calm     91 % 0.0 mm 160.0 W/m2 CLR
08:12 13.4 °C 11.9 °C 1022.6 hPa Calm     91 % 0.0 mm 179.0 W/m2 CLR
08:17 14.0 °C 12.4 °C 1022.6 hPa SW 3.7 km/h 3.7 km/h 90 % 0.0 mm 193.0 W/m2 CLR
08:22 14.6 °C 12.3 °C 1022.6 hPa WSW 5.6 km/h 5.6 km/h 86 % 0.0 mm 209.0 W/m2 CLR
08:27 15.2 °C 12.3 °C 1022.6 hPa Calm     83 % 0.0 mm 223.0 W/m2 CLR
08:32 15.7 °C 12.2 °C 1022.9 hPa Calm     80 % 0.0 mm 239.0 W/m2 CLR
08:37 16.1 °C 12.7 °C 1022.9 hPa Calm     80 % 0.0 mm 257.0 W/m2 CLR
08:42 16.5 °C 12.7 °C 1022.9 hPa SSW 1.9 km/h 1.9 km/h 78 % 0.0 mm 272.0 W/m2 CLR
08:47 16.8 °C 12.5 °C 1022.9 hPa SSW 5.6 km/h 5.6 km/h 76 % 0.0 mm 288.0 W/m2 CLR
08:52 17.0 °C 11.7 °C 1022.9 hPa WSW 7.4 km/h 7.4 km/h 71 % 0.0 mm 308.0 W/m2 CLR
08:57 17.2 °C 11.9 °C 1022.9 hPa SW 5.6 km/h 5.6 km/h 71 % 0.0 mm 327.0 W/m2 CLR
09:02 17.6 °C 12.0 °C 1022.9 hPa SW 5.6 km/h 5.6 km/h 70 % 0.0 mm 343.0 W/m2 CLR
09:07 17.9 °C 11.9 °C 1022.9 hPa NW 11.3 km/h 11.3 km/h 68 % 0.0 mm 357.0 W/m2 CLR
09:12 18.1 °C 11.2 °C 1022.9 hPa NW 11.1 km/h 11.1 km/h 64 % 0.0 mm 373.0 W/m2 CLR
09:17 18.2 °C 10.8 °C 1022.9 hPa WNW 18.5 km/h 18.5 km/h 62 % 0.0 mm 392.0 W/m2 CLR
09:22 18.3 °C 10.9 °C 1023.2 hPa WNW 11.1 km/h 11.1 km/h 62 % 0.0 mm 410.0 W/m2 CLR
09:27 18.6 °C 10.6 °C 1023.2 hPa NW 14.8 km/h 14.8 km/h 60 % 0.0 mm 425.0 W/m2 CLR
09:32 18.7 °C 10.5 °C 1023.2 hPa WNW 16.7 km/h 16.7 km/h 59 % 0.0 mm 439.0 W/m2 CLR
09:37 18.8 °C 10.8 °C 1023.2 hPa NW 18.5 km/h 18.5 km/h 60 % 0.0 mm 454.0 W/m2 CLR
09:42 18.8 °C 10.8 °C 1023.2 hPa NW 14.8 km/h 14.8 km/h 60 % 0.0 mm 60.0 W/m2 CLR
09:47 18.9 °C 10.7 °C 1023.2 hPa NW 13.0 km/h 13.0 km/h 59 % 0.0 mm 169.0 W/m2 CLR
09:52 19.1 °C 10.8 °C 1023.2 hPa NNW 12.9 km/h 12.9 km/h 59 % 0.0 mm 503.0 W/m2 CLR
09:57 19.2 °C 11.0 °C 1023.6 hPa NW 9.3 km/h 9.3 km/h 59 % 0.0 mm 515.0 W/m2 CLR
10:02 19.2 °C 10.7 °C 1023.6 hPa NW 17.7 km/h 17.7 km/h 58 % 0.0 mm 531.0 W/m2 CLR
10:07 19.3 °C 10.6 °C 1023.6 hPa NW 12.9 km/h 12.9 km/h 57 % 0.0 mm 547.0 W/m2 CLR
10:12 19.4 °C 10.9 °C 1023.6 hPa NNW 9.3 km/h 9.3 km/h 58 % 0.0 mm 561.0 W/m2 CLR
10:17 19.6 °C 11.1 °C 1023.6 hPa NW 9.3 km/h 9.3 km/h 58 % 0.0 mm 575.0 W/m2 CLR
10:22 19.6 °C 10.8 °C 1023.6 hPa NW 7.4 km/h   57 % 0.0 mm 591.0 W/m2 CLR
10:27 19.8 °C 11.1 °C 1023.6 hPa NW 12.9 km/h 12.9 km/h 57 % 0.0 mm 603.0 W/m2 CLR
10:32 20.1 °C 11.0 °C 1023.6 hPa NNW 16.7 km/h 16.7 km/h 56 % 0.0 mm 619.0 W/m2 CLR
10:37 20.2 °C 11.1 °C 1023.6 hPa NNW 13.0 km/h 13.0 km/h 56 % 0.0 mm 631.0 W/m2 CLR
10:42 20.4 °C 11.1 °C 1023.6 hPa WNW 13.0 km/h 13.0 km/h 55 % 0.0 mm 642.0 W/m2 CLR
10:47 20.3 °C 10.7 °C 1023.6 hPa West 1.9 km/h   54 % 0.0 mm 659.0 W/m2 CLR
10:52 20.6 °C 10.9 °C 1023.6 hPa North 20.4 km/h 20.4 km/h 54 % 0.0 mm 668.0 W/m2 CLR
10:57 20.8 °C 10.9 °C 1023.9 hPa NNW 18.5 km/h 18.5 km/h 53 % 0.0 mm 682.0 W/m2 CLR
11:03 20.8 °C 10.6 °C 1023.9 hPa West 3.2 km/h 3.5 km/h 52 % 0.0 mm 694.0 W/m2 CLR
11:08 20.7 °C 10.8 °C 1023.6 hPa NW 9.3 km/h 11.7 km/h 53 % 0.0 mm 708.0 W/m2 CLR
11:13 21.0 °C 11.1 °C 1023.6 hPa NNE 8.0 km/h 11.9 km/h 53 % 0.0 mm 724.0 W/m2 CLR
11:18 21.3 °C 10.5 °C 1023.6 hPa North 16.7 km/h 16.7 km/h 50 % 0.0 mm 733.0 W/m2 CLR
11:23 21.3 °C 10.4 °C 1023.9 hPa North 11.1 km/h 11.1 km/h 50 % 0.0 mm 745.0 W/m2 CLR
11:28 21.6 °C 11.0 °C 1023.9 hPa North 18.5 km/h 18.5 km/h 51 % 0.0 mm 758.0 W/m2 CLR
11:33 21.7 °C 10.8 °C 1023.9 hPa NW 11.3 km/h 11.3 km/h 50 % 0.0 mm 770.0 W/m2 CLR
11:38 21.6 °C 10.1 °C 1023.9 hPa NW 14.8 km/h 14.8 km/h 48 % 0.0 mm 779.0 W/m2 CLR
11:43 21.6 °C 9.5 °C 1023.9 hPa NNW 13.0 km/h 13.0 km/h 46 % 0.0 mm 788.0 W/m2 CLR
11:44 21.6 °C 9.8 °C 1023.6 hPa NW 6.4 km/h 6.4 km/h 47 % 0.0 mm 789.0 W/m2 CLR
11:49 21.8 °C 9.9 °C 1023.9 hPa NNE 14.8 km/h 14.8 km/h 47 % 0.0 mm 802.0 W/m2 CLR
11:54 21.8 °C 9.9 °C 1023.9 hPa NNW 11.1 km/h 11.1 km/h 47 % 0.0 mm 809.0 W/m2 CLR
11:59 22.0 °C 9.8 °C 1023.9 hPa North 7.4 km/h 7.4 km/h 46 % 0.0 mm 817.0 W/m2 CLR
12:04 22.2 °C 10.1 °C 1023.9 hPa West 7.4 km/h   46 % 0.0 mm 828.0 W/m2 CLR
12:09 22.3 °C 10.2 °C 1023.9 hPa NW 14.8 km/h 14.8 km/h 46 % 0.0 mm 837.0 W/m2 CLR
12:14 22.4 °C 9.9 °C 1023.6 hPa North 14.8 km/h 14.8 km/h 45 % 0.0 mm 842.0 W/m2 CLR
12:19 22.6 °C 9.7 °C 1023.9 hPa ENE 11.1 km/h 11.1 km/h 44 % 0.0 mm 851.0 W/m2 CLR
12:24 22.9 °C 10.1 °C 1023.6 hPa NE 6.4 km/h 6.4 km/h 44 % 0.0 mm 860.0 W/m2 CLR
12:29 23.1 °C 10.1 °C 1023.6 hPa NW 13.0 km/h 13.0 km/h 44 % 0.0 mm 868.0 W/m2 CLR
12:34 23.1 °C 9.8 °C 1023.6 hPa Calm     43 % 0.0 mm 874.0 W/m2 CLR
12:39 23.3 °C 10.4 °C 1023.6 hPa North 11.3 km/h 11.3 km/h 44 % 0.0 mm 877.0 W/m2 CLR
12:44 23.3 °C 9.7 °C 1023.6 hPa North 11.1 km/h 11.1 km/h 42 % 0.0 mm 888.0 W/m2 CLR
12:49 23.3 °C 9.7 °C 1023.6 hPa North 16.7 km/h 16.7 km/h 42 % 0.0 mm 888.0 W/m2 CLR
12:54 23.3 °C 9.7 °C 1023.6 hPa North 16.7 km/h 16.7 km/h 42 % 0.0 mm 893.0 W/m2 CLR
12:59 23.3 °C 9.7 °C 1023.6 hPa NW 18.5 km/h 18.5 km/h 42 % 0.0 mm 900.0 W/m2 CLR
13:04 23.5 °C 9.8 °C 1023.6 hPa Calm   1.6 km/h 42 % 0.0 mm 907.0 W/m2 CLR
13:09 23.9 °C 9.8 °C 1023.6 hPa North 16.7 km/h 16.7 km/h 41 % 0.0 mm 909.0 W/m2 CLR
13:14 23.7 °C 10.0 °C 1023.6 hPa ENE 13.0 km/h 13.0 km/h 42 % 0.0 mm 914.0 W/m2 CLR
13:19 23.8 °C 9.4 °C 1023.6 hPa WNW 16.7 km/h 16.7 km/h 40 % 0.0 mm 926.0 W/m2 CLR
13:24 23.9 °C 9.4 °C 1023.6 hPa NNW 20.4 km/h 20.4 km/h 40 % 0.0 mm 923.0 W/m2 CLR
13:29 23.9 °C 9.5 °C 1023.2 hPa NW 3.2 km/h   40 % 0.0 mm 926.0 W/m2 CLR
13:34 23.9 °C 9.1 °C 1023.6 hPa Calm     39 % 0.0 mm 930.0 W/m2 CLR
13:39 24.2 °C 9.3 °C 1023.2 hPa Calm     39 % 0.0 mm 928.0 W/m2 CLR
13:45 24.3 °C 9.5 °C 1023.2 hPa NE 14.8 km/h 14.8 km/h 39 % 0.0 mm 940.0 W/m2 CLR
13:50 24.4 °C 9.9 °C 1023.2 hPa SW 11.1 km/h 11.1 km/h 40 % 0.0 mm 946.0 W/m2 CLR
13:54 24.7 °C 9.4 °C 1023.2 hPa North 7.4 km/h 7.4 km/h 38 % 0.0 mm 998.0 W/m2 CLR
14:00 24.9 °C 9.2 °C 1023.2 hPa West 9.7 km/h 9.7 km/h 37 % 0.0 mm 984.0 W/m2 CLR
14:05 24.8 °C 9.5 °C 1023.2 hPa West 3.7 km/h 3.7 km/h 38 % 0.0 mm 979.0 W/m2 CLR
14:09 24.8 °C 9.1 °C 1023.2 hPa West 9.3 km/h 9.3 km/h 37 % 0.0 mm 1000.0 W/m2 CLR
14:15 24.6 °C 8.9 °C 1023.2 hPa NNW 9.7 km/h 9.7 km/h 37 % 0.0 mm 1000.0 W/m2 CLR
14:20 24.8 °C 8.7 °C 1023.2 hPa North 20.4 km/h 20.4 km/h 36 % 0.0 mm 1032.0 W/m2 CLR
14:25 24.8 °C 9.1 °C 1023.2 hPa ENE 11.1 km/h 11.1 km/h 37 % 0.0 mm 1013.0 W/m2 CLR
14:30 25.1 °C 8.5 °C 1023.2 hPa East 3.7 km/h 3.7 km/h 35 % 0.0 mm 1058.0 W/m2 CLR
14:35 25.3 °C 8.7 °C 1022.9 hPa Calm     35 % 0.0 mm 427.0 W/m2 CLR
14:40 25.1 °C 9.0 °C 1022.9 hPa NNW 6.4 km/h 6.4 km/h 36 % 0.0 mm 202.0 W/m2 CLR
14:45 24.9 °C 8.8 °C 1022.9 hPa NW 11.1 km/h 11.1 km/h 36 % 0.0 mm 262.0 W/m2 CLR
14:50 24.6 °C 8.9 °C 1022.9 hPa Calm     37 % 0.0 mm 1056.0 W/m2 CLR
14:55 24.9 °C 8.8 °C 1022.9 hPa Calm     36 % 0.0 mm 1025.0 W/m2 CLR
15:00 25.1 °C 8.6 °C 1022.9 hPa SE 9.3 km/h 9.3 km/h 35 % 0.0 mm 1013.0 W/m2 CLR
15:05 25.1 °C 8.6 °C 1022.9 hPa Calm     35 % 0.0 mm 988.0 W/m2 CLR
15:10 25.4 °C 8.8 °C 1022.9 hPa SE 4.8 km/h 4.8 km/h 35 % 0.0 mm 227.0 W/m2 CLR
15:15 25.4 °C 8.8 °C 1022.9 hPa Calm   0.2 km/h 35 % 0.0 mm 1007.0 W/m2 CLR
15:20 25.4 °C 8.4 °C 1022.6 hPa Calm     34 % 0.0 mm 232.0 W/m2 CLR
15:25 25.6 °C 9.4 °C 1022.6 hPa ENE 5.6 km/h 5.6 km/h 36 % 0.0 mm 905.0 W/m2 CLR
15:30 25.8 °C 8.8 °C 1022.6 hPa ENE 14.8 km/h 14.8 km/h 34 % 0.0 mm 893.0 W/m2 CLR
15:35 25.8 °C 8.8 °C 1022.6 hPa ESE 5.6 km/h 5.6 km/h 34 % 0.0 mm 879.0 W/m2 CLR
15:40 25.8 °C 8.3 °C 1022.6 hPa East 9.3 km/h 9.3 km/h 33 % 0.0 mm 886.0 W/m2 CLR
15:45 25.8 °C 8.8 °C 1022.6 hPa NE 9.3 km/h   34 % 0.0 mm 896.0 W/m2 CLR
15:50 26.1 °C 8.5 °C 1022.6 hPa East 11.1 km/h 11.1 km/h 33 % 0.0 mm 870.0 W/m2 CLR
15:51 26.1 °C 8.5 °C 1022.6 hPa NE 11.1 km/h 11.1 km/h 33 % 0.0 mm 867.0 W/m2 CLR
15:56 26.1 °C 8.6 °C 1022.2 hPa NW 5.6 km/h 5.6 km/h 33 % 0.0 mm 872.0 W/m2 CLR
16:01 26.6 °C 8.9 °C 1022.2 hPa NW 11.3 km/h 11.3 km/h 33 % 0.0 mm 856.0 W/m2 CLR
16:06 26.8 °C 8.7 °C 1022.2 hPa NNW 7.4 km/h 7.4 km/h 32 % 0.0 mm 835.0 W/m2 CLR
16:11 26.8 °C 8.7 °C 1022.2 hPa NNE 9.7 km/h 9.7 km/h 32 % 0.0 mm 837.0 W/m2 CLR
16:16 26.9 °C 9.3 °C 1022.2 hPa NNE 12.9 km/h 12.9 km/h 33 % 0.0 mm 849.0 W/m2 CLR
16:21 26.3 °C 8.3 °C 1022.2 hPa NNW 16.7 km/h 16.7 km/h 32 % 0.0 mm 113.0 W/m2 CLR
16:26 25.8 °C 7.9 °C 1022.2 hPa Calm     32 % 0.0 mm 134.0 W/m2 CLR
16:32 25.7 °C 7.8 °C 1022.2 hPa NE 5.6 km/h 5.6 km/h 32 % 0.0 mm 795.0 W/m2 CLR
16:37 25.9 °C 7.9 °C 1022.2 hPa Calm     32 % 0.0 mm 773.0 W/m2 CLR
16:42 25.7 °C 7.7 °C 1021.9 hPa Calm     32 % 0.0 mm 118.0 W/m2 CLR
16:47 25.5 °C 8.1 °C 1021.9 hPa Calm     33 % 0.0 mm 162.0 W/m2 CLR
16:52 25.7 °C 9.1 °C 1021.9 hPa ENE 6.4 km/h 6.4 km/h 35 % 0.0 mm 770.0 W/m2 CLR
16:57 26.4 °C 8.8 °C 1021.9 hPa NE 5.6 km/h 5.6 km/h 33 % 0.0 mm 740.0 W/m2 CLR
17:02 26.7 °C 8.1 °C 1021.6 hPa NE 14.8 km/h 14.8 km/h 31 % 0.0 mm 613.0 W/m2 CLR
17:07 26.7 °C 8.2 °C 1021.6 hPa NNE 9.3 km/h 9.3 km/h 31 % 0.0 mm 626.0 W/m2 CLR
17:12 26.7 °C 7.7 °C 1021.6 hPa NNE 5.6 km/h 5.6 km/h 30 % 0.0 mm 729.0 W/m2 CLR
17:17 26.8 °C 7.7 °C 1021.6 hPa NNE 5.6 km/h 5.6 km/h 30 % 0.0 mm 636.0 W/m2 CLR
17:22 26.8 °C 7.7 °C 1021.6 hPa NW 8.0 km/h 8.0 km/h 30 % 0.0 mm 380.0 W/m2 CLR
17:27 26.6 °C 8.1 °C 1021.6 hPa NNE 13.0 km/h 13.0 km/h 31 % 0.0 mm 561.0 W/m2 CLR
17:32 26.5 °C 8.0 °C 1021.6 hPa North 18.5 km/h 18.5 km/h 31 % 0.0 mm 628.0 W/m2 CLR
17:37 26.6 °C 8.1 °C 1021.6 hPa NNE 11.3 km/h 11.3 km/h 31 % 0.0 mm 555.0 W/m2 CLR
17:42 26.6 °C 8.1 °C 1021.6 hPa NE 16.7 km/h 16.7 km/h 31 % 0.0 mm 584.0 W/m2 CLR
17:47 26.6 °C 8.1 °C 1021.6 hPa NNW 14.8 km/h 14.8 km/h 31 % 0.0 mm 624.0 W/m2 CLR
17:52 26.8 °C 8.2 °C 1021.6 hPa North 9.3 km/h 9.3 km/h 31 % 0.0 mm 601.0 W/m2 CLR
17:57 26.9 °C 7.9 °C 1021.6 hPa NNE 7.4 km/h 7.4 km/h 30 % 0.0 mm 578.0 W/m2 CLR
18:02 26.9 °C 8.4 °C 1021.6 hPa NNE 11.1 km/h 11.1 km/h 31 % 0.0 mm 541.0 W/m2 CLR
18:07 26.9 °C 8.3 °C 1021.6 hPa NNE 16.7 km/h 16.7 km/h 31 % 0.0 mm 515.0 W/m2 CLR
18:12 26.9 °C 7.8 °C 1021.6 hPa NE 3.7 km/h   30 % 0.0 mm 494.0 W/m2 CLR
18:17 26.9 °C 7.9 °C 1021.6 hPa NNE 16.1 km/h 16.1 km/h 30 % 0.0 mm 471.0 W/m2 CLR
18:22 27.1 °C 8.0 °C 1021.9 hPa North 13.0 km/h 13.0 km/h 30 % 0.0 mm 454.0 W/m2 CLR
18:27 27.0 °C 7.4 °C 1021.9 hPa NE 5.6 km/h 5.6 km/h 29 % 0.0 mm 438.0 W/m2 CLR
18:32 26.9 °C 7.3 °C 1021.9 hPa ENE 1.9 km/h 1.9 km/h 29 % 0.0 mm 420.0 W/m2 CLR
18:37 26.8 °C 7.8 °C 1021.9 hPa NNW 5.6 km/h 5.6 km/h 30 % 0.0 mm 401.0 W/m2 CLR
18:42 27.1 °C 7.5 °C 1021.9 hPa North 14.8 km/h 14.8 km/h 29 % 0.0 mm 387.0 W/m2 CLR
18:47 27.0 °C 7.4 °C 1021.9 hPa North 22.2 km/h 22.2 km/h 29 % 0.0 mm 371.0 W/m2 CLR
18:52 26.8 °C 6.8 °C 1021.9 hPa NNW 19.3 km/h 19.3 km/h 28 % 0.0 mm 355.0 W/m2 CLR
18:57 26.7 °C 7.2 °C 1021.9 hPa North 5.6 km/h 5.6 km/h 29 % 0.0 mm 336.0 W/m2 CLR
19:02 26.6 °C 7.1 °C 1021.9 hPa North 18.5 km/h 18.5 km/h 29 % 0.0 mm 323.0 W/m2 CLR
19:07 26.6 °C 7.6 °C 1021.9 hPa NNE 9.3 km/h 9.3 km/h 30 % 0.0 mm 309.0 W/m2 CLR
19:12 26.6 °C 7.1 °C 1021.9 hPa North 3.7 km/h 3.7 km/h 29 % 0.0 mm 292.0 W/m2 CLR
19:17 26.7 °C 7.2 °C 1021.9 hPa Calm     29 % 0.0 mm 276.0 W/m2 CLR
19:22 26.7 °C 7.2 °C 1021.6 hPa NE 6.4 km/h 6.4 km/h 29 % 0.0 mm 258.0 W/m2 CLR
19:27 26.6 °C 6.6 °C 1021.9 hPa North 5.6 km/h   28 % 0.0 mm 243.0 W/m2 CLR
19:32 26.6 °C 7.1 °C 1021.9 hPa Calm     29 % 0.0 mm 225.0 W/m2 CLR
19:37 26.7 °C 6.7 °C 1021.9 hPa Calm     28 % 0.0 mm 207.0 W/m2 CLR
19:42 26.9 °C 7.3 °C 1021.9 hPa NNW 5.6 km/h 5.6 km/h 29 % 0.0 mm 188.0 W/m2 CLR
19:47 26.8 °C 6.7 °C 1021.9 hPa ENE 1.9 km/h 1.9 km/h 28 % 0.0 mm 171.0 W/m2 CLR
19:52 26.6 °C 6.6 °C 1021.9 hPa Calm     28 % 0.0 mm 153.0 W/m2 CLR
19:57 26.3 °C 6.9 °C 1021.9 hPa ENE 4.8 km/h 4.8 km/h 29 % 0.0 mm 135.0 W/m2 CLR
20:02 26.1 °C 6.7 °C 1021.9 hPa NE 3.7 km/h 3.7 km/h 29 % 0.0 mm 120.0 W/m2 CLR
20:07 26.0 °C 6.6 °C 1021.9 hPa Calm     29 % 0.0 mm 102.0 W/m2 CLR
20:12 26.0 °C 6.6 °C 1022.2 hPa Calm     29 % 0.0 mm 88.0 W/m2 CLR
20:17 25.9 °C 6.5 °C 1022.2 hPa NE 3.7 km/h 3.7 km/h 29 % 0.0 mm 74.0 W/m2 FEW
20:22 25.8 °C 6.9 °C 1022.2 hPa ENE 5.6 km/h 5.6 km/h 30 % 0.0 mm 62.0 W/m2 SCT
20:23 25.7 °C 6.8 °C 1022.2 hPa NE 8.0 km/h 8.0 km/h 30 % 0.0 mm 60.0 W/m2 SCT
20:28 25.6 °C 6.7 °C 1022.2 hPa NE 5.6 km/h 5.6 km/h 30 % 0.0 mm 39.0 W/m2 BKN
20:33 25.4 °C 7.0 °C 1022.2 hPa Calm     31 % 0.0 mm 35.0 W/m2 BKN
20:38 25.3 °C 6.9 °C 1022.2 hPa Calm     31 % 0.0 mm 26.0 W/m2 BKN
20:43 25.2 °C 7.3 °C 1022.6 hPa Calm     32 % 0.0 mm 19.0 W/m2 BKN
20:48 24.9 °C 7.5 °C 1022.6 hPa Calm     33 % 0.0 mm 14.0 W/m2 BKN
20:53 24.5 °C 7.2 °C 1022.6 hPa Calm     33 % 0.0 mm 9.0 W/m2 BKN
20:58 24.3 °C 7.0 °C 1022.9 hPa Calm     33 % 0.0 mm 7.0 W/m2 BKN
21:03 24.2 °C 9.3 °C 1022.9 hPa ESE 5.6 km/h 5.6 km/h 39 % 0.0 mm 5.0 W/m2 OVC
21:08 23.9 °C 9.8 °C 1022.9 hPa Calm     41 % 0.0 mm 0.0 W/m2 OVC
21:13 23.7 °C 10.4 °C 1022.9 hPa SE 9.3 km/h 9.3 km/h 43 % 0.0 mm 0.0 W/m2 OVC
21:18 23.6 °C 10.9 °C 1022.9 hPa SSE 9.7 km/h 9.7 km/h 45 % 0.0 mm 0.0 W/m2 OVC
21:23 23.4 °C 10.8 °C 1022.9 hPa SE 3.7 km/h 3.7 km/h 45 % 0.0 mm 0.0 W/m2 CLR
21:28 23.2 °C 10.9 °C 1023.2 hPa Calm     46 % 0.0 mm 0.0 W/m2 CLR
21:33 22.9 °C 11.7 °C 1023.2 hPa SE 5.6 km/h 5.6 km/h 49 % 0.0 mm 0.0 W/m2 CLR
21:38 22.8 °C 11.6 °C 1023.2 hPa SSE 13.0 km/h 13.0 km/h 49 % 0.0 mm 0.0 W/m2 CLR
21:43 22.8 °C 11.6 °C 1023.2 hPa SSE 7.4 km/h 7.4 km/h 49 % 0.0 mm 0.0 W/m2 CLR
21:48 22.7 °C 11.7 °C 1023.2 hPa SSE 9.3 km/h 9.3 km/h 50 % 0.0 mm 0.0 W/m2 CLR
21:53 22.5 °C 11.8 °C 1023.6 hPa SSE 11.1 km/h 11.1 km/h 51 % 0.0 mm 0.0 W/m2 CLR
21:58 22.3 °C 12.0 °C 1023.6 hPa SSE 11.1 km/h 11.1 km/h 52 % 0.0 mm 0.0 W/m2 CLR
22:03 22.2 °C 11.9 °C 1023.6 hPa South 5.6 km/h 5.6 km/h 52 % 0.0 mm 0.0 W/m2 CLR
22:08 22.1 °C 11.7 °C 1023.6 hPa South 5.6 km/h 5.6 km/h 52 % 0.0 mm 0.0 W/m2 CLR
22:13 21.9 °C 11.9 °C 1023.9 hPa South 3.7 km/h 3.7 km/h 53 % 0.0 mm 0.0 W/m2 CLR
22:18 21.8 °C 12.1 °C 1023.9 hPa South 5.6 km/h 5.6 km/h 54 % 0.0 mm 0.0 W/m2 CLR
22:23 21.7 °C 12.0 °C 1023.9 hPa Calm     54 % 0.0 mm 0.0 W/m2 CLR
22:28 21.6 °C 11.9 °C 1023.9 hPa Calm     54 % 0.0 mm 0.0 W/m2 CLR
22:33 21.5 °C 11.8 °C 1023.9 hPa Calm     54 % 0.0 mm 0.0 W/m2 CLR
22:38 21.2 °C 11.8 °C 1024.3 hPa Calm     55 % 0.0 mm 0.0 W/m2 CLR
22:43 21.0 °C 11.6 °C 1024.3 hPa Calm     55 % 0.0 mm 0.0 W/m2 CLR
22:48 20.8 °C 11.7 °C 1024.3 hPa Calm     56 % 0.0 mm 0.0 W/m2 CLR
22:53 20.7 °C 11.6 °C 1024.3 hPa Calm     56 % 0.0 mm 0.0 W/m2 CLR
22:58 20.4 °C 11.8 °C 1024.3 hPa Calm     58 % 0.0 mm 0.0 W/m2 CLR
23:03 20.2 °C 11.7 °C 1024.3 hPa Calm     58 % 0.0 mm 0.0 W/m2 CLR
23:08 20.1 °C 11.8 °C 1024.6 hPa Calm     59 % 0.0 mm 0.0 W/m2 CLR
23:13 19.9 °C 11.6 °C 1024.6 hPa Calm     59 % 0.0 mm 0.0 W/m2 CLR
23:18 19.8 °C 11.8 °C 1024.6 hPa Calm     60 % 0.0 mm 0.0 W/m2 CLR
23:23 19.8 °C 11.8 °C 1024.6 hPa Calm     60 % 0.0 mm 0.0 W/m2 CLR
23:28 19.7 °C 11.7 °C 1024.6 hPa Calm     60 % 0.0 mm 0.0 W/m2 CLR
23:33 19.6 °C 11.8 °C 1024.6 hPa Calm     61 % 0.0 mm 0.0 W/m2 CLR
23:38 19.4 °C 11.7 °C 1024.9 hPa Calm     61 % 0.0 mm 0.0 W/m2 CLR
23:43 19.3 °C 11.6 °C 1024.9 hPa Calm     61 % 0.0 mm 0.0 W/m2 CLR
23:48 19.2 °C 11.7 °C 1024.9 hPa Calm     62 % 0.0 mm 0.0 W/m2 CLR
23:53 19.1 °C 11.6 °C 1024.9 hPa Calm     62 % 0.0 mm 0.0 W/m2 CLR
23:58 19.1 °C 11.6 °C 1024.9 hPa SW 1.9 km/h 1.9 km/h 62 % 0.0 mm 0.0 W/m2 CLR
Lo Temps de Massalio
Compliments of Weather Underground - 1.25 mb